sensor_id;sensor_type;location;lat;lon;timestamp;P1;durP1;ratioP1;P2;durP2;ratioP2
56239;SDS011;42154;51.992;5.896;2023-06-22T00:00:49;3.22;;;2.00;;
56239;SDS011;42154;51.992;5.896;2023-06-22T00:03:16;2.25;;;1.63;;
56239;SDS011;42154;51.992;5.896;2023-06-22T00:05:42;2.15;;;1.77;;
56239;SDS011;42154;51.992;5.896;2023-06-22T00:08:08;2.80;;;2.13;;
56239;SDS011;42154;51.992;5.896;2023-06-22T00:10:34;3.67;;;2.20;;
56239;SDS011;42154;51.992;5.896;2023-06-22T00:13:00;2.67;;;2.13;;
56239;SDS011;42154;51.992;5.896;2023-06-22T00:15:26;2.67;;;2.00;;
56239;SDS011;42154;51.992;5.896;2023-06-22T00:17:52;3.47;;;2.80;;
56239;SDS011;42154;51.992;5.896;2023-06-22T00:20:17;3.55;;;2.75;;
56239;SDS011;42154;51.992;5.896;2023-06-22T00:22:43;2.85;;;1.88;;
56239;SDS011;42154;51.992;5.896;2023-06-22T00:25:10;2.58;;;2.13;;
56239;SDS011;42154;51.992;5.896;2023-06-22T00:27:36;3.80;;;2.67;;
56239;SDS011;42154;51.992;5.896;2023-06-22T00:30:04;3.63;;;2.40;;
56239;SDS011;42154;51.992;5.896;2023-06-22T00:32:31;3.83;;;2.28;;
56239;SDS011;42154;51.992;5.896;2023-06-22T00:34:56;4.05;;;2.72;;
56239;SDS011;42154;51.992;5.896;2023-06-22T00:37:22;3.35;;;2.50;;
56239;SDS011;42154;51.992;5.896;2023-06-22T00:39:52;3.87;;;2.60;;
56239;SDS011;42154;51.992;5.896;2023-06-22T00:42:18;4.28;;;2.60;;
56239;SDS011;42154;51.992;5.896;2023-06-22T00:44:45;4.22;;;3.00;;
56239;SDS011;42154;51.992;5.896;2023-06-22T00:47:12;3.80;;;2.58;;
56239;SDS011;42154;51.992;5.896;2023-06-22T00:49:41;4.28;;;3.15;;
56239;SDS011;42154;51.992;5.896;2023-06-22T00:52:07;3.10;;;2.80;;
56239;SDS011;42154;51.992;5.896;2023-06-22T00:54:38;3.33;;;2.90;;
56239;SDS011;42154;51.992;5.896;2023-06-22T00:57:13;4.28;;;3.10;;
56239;SDS011;42154;51.992;5.896;2023-06-22T00:59:44;4.72;;;3.13;;
56239;SDS011;42154;51.992;5.896;2023-06-22T01:02:10;3.53;;;2.75;;
56239;SDS011;42154;51.992;5.896;2023-06-22T01:04:37;3.95;;;2.60;;
56239;SDS011;42154;51.992;5.896;2023-06-22T01:16:00;2.88;;;2.45;;
56239;SDS011;42154;51.992;5.896;2023-06-22T01:18:36;4.60;;;2.70;;
56239;SDS011;42154;51.992;5.896;2023-06-22T01:21:06;3.60;;;2.08;;
56239;SDS011;42154;51.992;5.896;2023-06-22T01:26:06;3.75;;;2.30;;
56239;SDS011;42154;51.992;5.896;2023-06-22T01:31:23;2.88;;;1.95;;
56239;SDS011;42154;51.992;5.896;2023-06-22T01:33:51;4.15;;;2.47;;
56239;SDS011;42154;51.992;5.896;2023-06-22T01:38:46;4.25;;;3.47;;
56239;SDS011;42154;51.992;5.896;2023-06-22T01:41:14;5.55;;;3.15;;
56239;SDS011;42154;51.992;5.896;2023-06-22T01:43:41;3.60;;;3.20;;
56239;SDS011;42154;51.992;5.896;2023-06-22T01:46:07;3.15;;;2.70;;
56239;SDS011;42154;51.992;5.896;2023-06-22T01:48:33;3.08;;;2.58;;
56239;SDS011;42154;51.992;5.896;2023-06-22T01:51:00;4.63;;;2.97;;
56239;SDS011;42154;51.992;5.896;2023-06-22T01:53:27;4.03;;;2.97;;
56239;SDS011;42154;51.992;5.896;2023-06-22T01:55:53;3.58;;;3.20;;
56239;SDS011;42154;51.992;5.896;2023-06-22T01:58:20;6.57;;;4.07;;
56239;SDS011;42154;51.992;5.896;2023-06-22T02:00:50;4.22;;;3.50;;
56239;SDS011;42154;51.992;5.896;2023-06-22T02:03:23;4.38;;;3.50;;
56239;SDS011;42154;51.992;5.896;2023-06-22T02:05:55;3.88;;;2.80;;
56239;SDS011;42154;51.992;5.896;2023-06-22T02:08:30;5.43;;;2.25;;
56239;SDS011;42154;51.992;5.896;2023-06-22T02:11:08;3.35;;;2.70;;
56239;SDS011;42154;51.992;5.896;2023-06-22T02:13:36;3.80;;;3.40;;
56239;SDS011;42154;51.992;5.896;2023-06-22T02:16:03;4.22;;;3.55;;
56239;SDS011;42154;51.992;5.896;2023-06-22T02:18:29;4.72;;;3.30;;
56239;SDS011;42154;51.992;5.896;2023-06-22T02:20:55;3.63;;;2.72;;
56239;SDS011;42154;51.992;5.896;2023-06-22T02:23:21;3.22;;;2.55;;
56239;SDS011;42154;51.992;5.896;2023-06-22T02:25:47;3.97;;;2.53;;
56239;SDS011;42154;51.992;5.896;2023-06-22T02:28:13;5.93;;;3.17;;
56239;SDS011;42154;51.992;5.896;2023-06-22T02:30:39;4.82;;;2.72;;
56239;SDS011;42154;51.992;5.896;2023-06-22T02:33:06;3.95;;;3.13;;
56239;SDS011;42154;51.992;5.896;2023-06-22T02:35:32;3.80;;;2.90;;
56239;SDS011;42154;51.992;5.896;2023-06-22T02:37:58;4.68;;;3.35;;
56239;SDS011;42154;51.992;5.896;2023-06-22T02:40:25;5.75;;;4.25;;
56239;SDS011;42154;51.992;5.896;2023-06-22T02:42:51;5.60;;;3.88;;
56239;SDS011;42154;51.992;5.896;2023-06-22T02:45:16;3.92;;;3.50;;
56239;SDS011;42154;51.992;5.896;2023-06-22T02:47:42;4.55;;;3.88;;
56239;SDS011;42154;51.992;5.896;2023-06-22T02:50:09;5.05;;;3.58;;
56239;SDS011;42154;51.992;5.896;2023-06-22T02:52:35;5.97;;;3.85;;
56239;SDS011;42154;51.992;5.896;2023-06-22T02:55:02;5.07;;;4.10;;
56239;SDS011;42154;51.992;5.896;2023-06-22T02:57:28;5.38;;;3.58;;
56239;SDS011;42154;51.992;5.896;2023-06-22T02:59:55;4.45;;;4.05;;
56239;SDS011;42154;51.992;5.896;2023-06-22T03:02:20;4.30;;;3.55;;
56239;SDS011;42154;51.992;5.896;2023-06-22T03:04:47;6.05;;;4.65;;
56239;SDS011;42154;51.992;5.896;2023-06-22T03:07:14;5.30;;;3.97;;
56239;SDS011;42154;51.992;5.896;2023-06-22T03:09:42;5.18;;;4.15;;
56239;SDS011;42154;51.992;5.896;2023-06-22T03:12:09;4.65;;;3.83;;
56239;SDS011;42154;51.992;5.896;2023-06-22T03:15:00;6.75;;;4.93;;
56239;SDS011;42154;51.992;5.896;2023-06-22T03:17:26;6.35;;;4.90;;
56239;SDS011;42154;51.992;5.896;2023-06-22T03:19:52;7.03;;;5.43;;
56239;SDS011;42154;51.992;5.896;2023-06-22T03:22:18;5.40;;;4.60;;
56239;SDS011;42154;51.992;5.896;2023-06-22T03:24:44;4.80;;;4.30;;
56239;SDS011;42154;51.992;5.896;2023-06-22T03:27:10;6.50;;;4.45;;
56239;SDS011;42154;51.992;5.896;2023-06-22T03:29:35;5.10;;;4.45;;
56239;SDS011;42154;51.992;5.896;2023-06-22T03:32:01;6.43;;;5.63;;
56239;SDS011;42154;51.992;5.896;2023-06-22T03:34:27;6.97;;;6.13;;
56239;SDS011;42154;51.992;5.896;2023-06-22T03:36:53;8.93;;;6.05;;
56239;SDS011;42154;51.992;5.896;2023-06-22T03:39:19;7.55;;;4.93;;
56239;SDS011;42154;51.992;5.896;2023-06-22T03:41:45;5.03;;;4.47;;
56239;SDS011;42154;51.992;5.896;2023-06-22T03:44:11;7.25;;;5.82;;
56239;SDS011;42154;51.992;5.896;2023-06-22T03:46:37;9.32;;;7.22;;
56239;SDS011;42154;51.992;5.896;2023-06-22T03:49:03;7.93;;;6.97;;
56239;SDS011;42154;51.992;5.896;2023-06-22T03:51:30;9.20;;;6.55;;
56239;SDS011;42154;51.992;5.896;2023-06-22T03:53:56;9.27;;;7.40;;
56239;SDS011;42154;51.992;5.896;2023-06-22T03:56:22;8.23;;;6.30;;
56239;SDS011;42154;51.992;5.896;2023-06-22T03:58:48;8.20;;;6.80;;
56239;SDS011;42154;51.992;5.896;2023-06-22T04:01:14;9.75;;;7.50;;
56239;SDS011;42154;51.992;5.896;2023-06-22T04:03:42;9.45;;;7.28;;
56239;SDS011;42154;51.992;5.896;2023-06-22T04:06:08;12.57;;;9.45;;
56239;SDS011;42154;51.992;5.896;2023-06-22T04:08:33;10.52;;;8.35;;
56239;SDS011;42154;51.992;5.896;2023-06-22T04:10:59;9.18;;;7.93;;
56239;SDS011;42154;51.992;5.896;2023-06-22T04:13:25;10.13;;;8.65;;
56239;SDS011;42154;51.992;5.896;2023-06-22T04:15:51;10.73;;;9.63;;
56239;SDS011;42154;51.992;5.896;2023-06-22T04:18:16;12.40;;;10.80;;
56239;SDS011;42154;51.992;5.896;2023-06-22T04:20:42;10.98;;;9.60;;
56239;SDS011;42154;51.992;5.896;2023-06-22T04:23:12;11.95;;;10.25;;
56239;SDS011;42154;51.992;5.896;2023-06-22T04:25:38;12.70;;;10.40;;
56239;SDS011;42154;51.992;5.896;2023-06-22T04:28:04;13.48;;;10.60;;
56239;SDS011;42154;51.992;5.896;2023-06-22T04:30:32;16.02;;;13.63;;
56239;SDS011;42154;51.992;5.896;2023-06-22T04:32:58;13.07;;;11.65;;
56239;SDS011;42154;51.992;5.896;2023-06-22T04:35:24;15.65;;;12.68;;
56239;SDS011;42154;51.992;5.896;2023-06-22T04:37:50;11.20;;;9.82;;
56239;SDS011;42154;51.992;5.896;2023-06-22T04:40:21;14.98;;;12.45;;
56239;SDS011;42154;51.992;5.896;2023-06-22T04:42:47;13.35;;;12.00;;
56239;SDS011;42154;51.992;5.896;2023-06-22T04:45:18;13.13;;;11.73;;
56239;SDS011;42154;51.992;5.896;2023-06-22T04:47:45;12.50;;;11.10;;
56239;SDS011;42154;51.992;5.896;2023-06-22T04:50:11;14.27;;;12.63;;
56239;SDS011;42154;51.992;5.896;2023-06-22T04:52:37;12.35;;;9.70;;
56239;SDS011;42154;51.992;5.896;2023-06-22T04:55:03;10.52;;;9.30;;
56239;SDS011;42154;51.992;5.896;2023-06-22T04:57:30;9.82;;;8.82;;
56239;SDS011;42154;51.992;5.896;2023-06-22T04:59:58;11.32;;;9.98;;
56239;SDS011;42154;51.992;5.896;2023-06-22T05:02:36;9.70;;;7.88;;
56239;SDS011;42154;51.992;5.896;2023-06-22T05:05:02;9.65;;;8.20;;
56239;SDS011;42154;51.992;5.896;2023-06-22T05:07:34;12.75;;;10.02;;
56239;SDS011;42154;51.992;5.896;2023-06-22T05:10:03;9.85;;;8.63;;
56239;SDS011;42154;51.992;5.896;2023-06-22T05:12:30;11.48;;;10.27;;
56239;SDS011;42154;51.992;5.896;2023-06-22T05:14:56;11.63;;;10.15;;
56239;SDS011;42154;51.992;5.896;2023-06-22T05:17:22;11.23;;;9.70;;
56239;SDS011;42154;51.992;5.896;2023-06-22T05:19:48;12.00;;;9.55;;
56239;SDS011;42154;51.992;5.896;2023-06-22T05:22:17;13.57;;;11.02;;
56239;SDS011;42154;51.992;5.896;2023-06-22T05:24:43;15.75;;;13.77;;
56239;SDS011;42154;51.992;5.896;2023-06-22T05:27:09;12.55;;;11.20;;
56239;SDS011;42154;51.992;5.896;2023-06-22T05:29:38;9.32;;;8.30;;
56239;SDS011;42154;51.992;5.896;2023-06-22T05:32:04;13.63;;;12.07;;
56239;SDS011;42154;51.992;5.896;2023-06-22T05:34:30;14.57;;;12.65;;
56239;SDS011;42154;51.992;5.896;2023-06-22T05:36:56;10.63;;;8.95;;
56239;SDS011;42154;51.992;5.896;2023-06-22T05:39:24;12.10;;;10.80;;
56239;SDS011;42154;51.992;5.896;2023-06-22T05:41:50;11.38;;;10.18;;
56239;SDS011;42154;51.992;5.896;2023-06-22T05:44:16;11.57;;;10.13;;
56239;SDS011;42154;51.992;5.896;2023-06-22T05:46:42;12.35;;;10.75;;
56239;SDS011;42154;51.992;5.896;2023-06-22T05:49:09;12.65;;;10.32;;
56239;SDS011;42154;51.992;5.896;2023-06-22T05:51:36;10.27;;;8.88;;
56239;SDS011;42154;51.992;5.896;2023-06-22T05:54:02;9.43;;;8.48;;
56239;SDS011;42154;51.992;5.896;2023-06-22T05:56:28;8.82;;;7.93;;
56239;SDS011;42154;51.992;5.896;2023-06-22T05:58:54;13.65;;;11.85;;
56239;SDS011;42154;51.992;5.896;2023-06-22T06:01:19;12.77;;;10.35;;
56239;SDS011;42154;51.992;5.896;2023-06-22T06:03:45;12.77;;;11.45;;
56239;SDS011;42154;51.992;5.896;2023-06-22T06:06:11;10.27;;;9.18;;
56239;SDS011;42154;51.992;5.896;2023-06-22T06:08:38;13.23;;;10.75;;
56239;SDS011;42154;51.992;5.896;2023-06-22T06:11:04;11.60;;;10.45;;
56239;SDS011;42154;51.992;5.896;2023-06-22T06:13:30;12.40;;;9.70;;
56239;SDS011;42154;51.992;5.896;2023-06-22T06:15:56;10.32;;;9.18;;
56239;SDS011;42154;51.992;5.896;2023-06-22T06:18:22;8.27;;;7.13;;
56239;SDS011;42154;51.992;5.896;2023-06-22T06:20:48;10.15;;;8.40;;
56239;SDS011;42154;51.992;5.896;2023-06-22T06:23:14;11.70;;;10.23;;
56239;SDS011;42154;51.992;5.896;2023-06-22T06:25:40;9.77;;;8.48;;
56239;SDS011;42154;51.992;5.896;2023-06-22T06:28:05;8.73;;;6.70;;
56239;SDS011;42154;51.992;5.896;2023-06-22T06:30:31;8.35;;;7.00;;
56239;SDS011;42154;51.992;5.896;2023-06-22T06:32:57;8.20;;;7.13;;
56239;SDS011;42154;51.992;5.896;2023-06-22T06:35:23;8.85;;;7.85;;
56239;SDS011;42154;51.992;5.896;2023-06-22T06:37:49;8.75;;;7.85;;
56239;SDS011;42154;51.992;5.896;2023-06-22T06:40:16;8.18;;;6.45;;
56239;SDS011;42154;51.992;5.896;2023-06-22T06:42:43;8.70;;;7.22;;
56239;SDS011;42154;51.992;5.896;2023-06-22T06:45:17;6.90;;;6.15;;
56239;SDS011;42154;51.992;5.896;2023-06-22T06:47:44;8.15;;;6.78;;
56239;SDS011;42154;51.992;5.896;2023-06-22T06:50:11;8.85;;;7.38;;
56239;SDS011;42154;51.992;5.896;2023-06-22T06:52:37;11.10;;;9.60;;
56239;SDS011;42154;51.992;5.896;2023-06-22T06:55:03;6.93;;;5.32;;
56239;SDS011;42154;51.992;5.896;2023-06-22T06:57:30;9.73;;;8.23;;
56239;SDS011;42154;51.992;5.896;2023-06-22T06:59:56;9.18;;;8.27;;
56239;SDS011;42154;51.992;5.896;2023-06-22T07:02:22;8.10;;;7.28;;
56239;SDS011;42154;51.992;5.896;2023-06-22T07:04:48;9.95;;;8.93;;
56239;SDS011;42154;51.992;5.896;2023-06-22T07:07:14;10.48;;;7.88;;
56239;SDS011;42154;51.992;5.896;2023-06-22T07:09:40;9.80;;;8.40;;
56239;SDS011;42154;51.992;5.896;2023-06-22T07:12:06;6.38;;;5.70;;
56239;SDS011;42154;51.992;5.896;2023-06-22T07:14:32;11.27;;;9.02;;
56239;SDS011;42154;51.992;5.896;2023-06-22T07:16:58;6.82;;;5.40;;
56239;SDS011;42154;51.992;5.896;2023-06-22T07:19:24;6.60;;;5.32;;
56239;SDS011;42154;51.992;5.896;2023-06-22T07:21:51;5.88;;;5.28;;
56239;SDS011;42154;51.992;5.896;2023-06-22T07:24:17;4.90;;;4.35;;
56239;SDS011;42154;51.992;5.896;2023-06-22T07:26:45;7.88;;;5.40;;
56239;SDS011;42154;51.992;5.896;2023-06-22T07:29:13;7.55;;;6.45;;
56239;SDS011;42154;51.992;5.896;2023-06-22T07:31:39;7.75;;;5.53;;
56239;SDS011;42154;51.992;5.896;2023-06-22T07:34:06;8.98;;;7.47;;
56239;SDS011;42154;51.992;5.896;2023-06-22T07:36:32;6.88;;;5.60;;
56239;SDS011;42154;51.992;5.896;2023-06-22T07:38:58;6.60;;;4.95;;
56239;SDS011;42154;51.992;5.896;2023-06-22T07:41:23;8.95;;;7.30;;
56239;SDS011;42154;51.992;5.896;2023-06-22T07:43:49;7.65;;;6.10;;
56239;SDS011;42154;51.992;5.896;2023-06-22T07:46:15;6.63;;;5.72;;
56239;SDS011;42154;51.992;5.896;2023-06-22T07:48:41;6.75;;;5.53;;
56239;SDS011;42154;51.992;5.896;2023-06-22T07:51:08;6.50;;;5.82;;
56239;SDS011;42154;51.992;5.896;2023-06-22T07:53:34;8.38;;;7.05;;
56239;SDS011;42154;51.992;5.896;2023-06-22T07:56:01;7.90;;;6.57;;
56239;SDS011;42154;51.992;5.896;2023-06-22T07:58:32;9.57;;;6.95;;
56239;SDS011;42154;51.992;5.896;2023-06-22T08:00:58;6.38;;;4.63;;
56239;SDS011;42154;51.992;5.896;2023-06-22T08:03:24;4.35;;;3.95;;
56239;SDS011;42154;51.992;5.896;2023-06-22T08:05:49;4.90;;;3.95;;
56239;SDS011;42154;51.992;5.896;2023-06-22T08:08:15;5.40;;;3.83;;
56239;SDS011;42154;51.992;5.896;2023-06-22T08:10:41;6.05;;;4.90;;
56239;SDS011;42154;51.992;5.896;2023-06-22T08:13:08;7.82;;;5.20;;
56239;SDS011;42154;51.992;5.896;2023-06-22T08:15:35;5.10;;;4.30;;
56239;SDS011;42154;51.992;5.896;2023-06-22T08:18:01;8.55;;;5.47;;
56239;SDS011;42154;51.992;5.896;2023-06-22T08:20:27;5.15;;;3.90;;
56239;SDS011;42154;51.992;5.896;2023-06-22T08:22:53;5.78;;;3.85;;
56239;SDS011;42154;51.992;5.896;2023-06-22T08:25:20;5.25;;;4.32;;
56239;SDS011;42154;51.992;5.896;2023-06-22T08:27:46;5.60;;;4.50;;
56239;SDS011;42154;51.992;5.896;2023-06-22T08:30:13;6.32;;;4.65;;
56239;SDS011;42154;51.992;5.896;2023-06-22T08:32:39;4.70;;;4.20;;
56239;SDS011;42154;51.992;5.896;2023-06-22T08:35:05;5.15;;;4.65;;
56239;SDS011;42154;51.992;5.896;2023-06-22T08:37:34;4.35;;;3.95;;
56239;SDS011;42154;51.992;5.896;2023-06-22T08:40:02;7.57;;;4.57;;
56239;SDS011;42154;51.992;5.896;2023-06-22T08:42:35;5.40;;;4.43;;
56239;SDS011;42154;51.992;5.896;2023-06-22T08:45:02;5.43;;;4.93;;
56239;SDS011;42154;51.992;5.896;2023-06-22T08:47:29;4.82;;;4.10;;
56239;SDS011;42154;51.992;5.896;2023-06-22T08:49:54;3.78;;;3.30;;
56239;SDS011;42154;51.992;5.896;2023-06-22T08:52:20;6.60;;;4.95;;
56239;SDS011;42154;51.992;5.896;2023-06-22T08:54:46;5.25;;;4.30;;
56239;SDS011;42154;51.992;5.896;2023-06-22T08:57:12;4.75;;;3.45;;
56239;SDS011;42154;51.992;5.896;2023-06-22T08:59:38;9.27;;;6.32;;
56239;SDS011;42154;51.992;5.896;2023-06-22T09:02:05;5.47;;;3.60;;
56239;SDS011;42154;51.992;5.896;2023-06-22T09:04:31;5.30;;;3.85;;
56239;SDS011;42154;51.992;5.896;2023-06-22T09:07:00;3.63;;;3.33;;
56239;SDS011;42154;51.992;5.896;2023-06-22T09:09:26;3.97;;;3.22;;
56239;SDS011;42154;51.992;5.896;2023-06-22T09:11:52;4.57;;;3.85;;
56239;SDS011;42154;51.992;5.896;2023-06-22T09:14:17;4.80;;;3.80;;
56239;SDS011;42154;51.992;5.896;2023-06-22T09:16:43;4.05;;;3.50;;
56239;SDS011;42154;51.992;5.896;2023-06-22T09:19:09;3.83;;;3.17;;
56239;SDS011;42154;51.992;5.896;2023-06-22T09:21:35;4.40;;;3.60;;
56239;SDS011;42154;51.992;5.896;2023-06-22T09:24:01;4.93;;;3.13;;
56239;SDS011;42154;51.992;5.896;2023-06-22T09:26:27;5.50;;;3.45;;
56239;SDS011;42154;51.992;5.896;2023-06-22T09:28:53;4.88;;;4.03;;
56239;SDS011;42154;51.992;5.896;2023-06-22T09:31:19;4.53;;;3.70;;
56239;SDS011;42154;51.992;5.896;2023-06-22T09:33:53;4.78;;;3.42;;
56239;SDS011;42154;51.992;5.896;2023-06-22T09:36:19;5.07;;;3.15;;
56239;SDS011;42154;51.992;5.896;2023-06-22T09:38:46;3.28;;;2.97;;
56239;SDS011;42154;51.992;5.896;2023-06-22T09:41:12;4.22;;;3.00;;
56239;SDS011;42154;51.992;5.896;2023-06-22T09:43:38;5.68;;;2.95;;
56239;SDS011;42154;51.992;5.896;2023-06-22T09:46:04;3.15;;;2.67;;
56239;SDS011;42154;51.992;5.896;2023-06-22T09:48:29;3.67;;;3.15;;
56239;SDS011;42154;51.992;5.896;2023-06-22T09:50:56;4.57;;;2.70;;
56239;SDS011;42154;51.992;5.896;2023-06-22T09:53:21;3.33;;;2.88;;
56239;SDS011;42154;51.992;5.896;2023-06-22T09:55:47;3.17;;;2.88;;
56239;SDS011;42154;51.992;5.896;2023-06-22T09:58:13;4.78;;;3.80;;
56239;SDS011;42154;51.992;5.896;2023-06-22T10:00:39;4.22;;;3.03;;
56239;SDS011;42154;51.992;5.896;2023-06-22T10:03:06;3.65;;;3.08;;
56239;SDS011;42154;51.992;5.896;2023-06-22T10:05:32;4.80;;;3.03;;
56239;SDS011;42154;51.992;5.896;2023-06-22T10:07:58;3.15;;;2.65;;
56239;SDS011;42154;51.992;5.896;2023-06-22T10:10:24;4.25;;;3.03;;
56239;SDS011;42154;51.992;5.896;2023-06-22T10:12:56;4.05;;;2.20;;
56239;SDS011;42154;51.992;5.896;2023-06-22T10:15:23;3.28;;;2.60;;
56239;SDS011;42154;51.992;5.896;2023-06-22T10:17:49;3.97;;;2.67;;
56239;SDS011;42154;51.992;5.896;2023-06-22T10:20:15;4.22;;;2.88;;
56239;SDS011;42154;51.992;5.896;2023-06-22T10:22:43;3.35;;;2.78;;
56239;SDS011;42154;51.992;5.896;2023-06-22T10:25:10;3.45;;;2.55;;
56239;SDS011;42154;51.992;5.896;2023-06-22T10:27:36;5.03;;;2.70;;
56239;SDS011;42154;51.992;5.896;2023-06-22T10:30:07;2.95;;;2.50;;
56239;SDS011;42154;51.992;5.896;2023-06-22T10:32:33;2.90;;;2.17;;
56239;SDS011;42154;51.992;5.896;2023-06-22T10:34:59;2.72;;;2.42;;
56239;SDS011;42154;51.992;5.896;2023-06-22T10:37:25;3.58;;;2.85;;
56239;SDS011;42154;51.992;5.896;2023-06-22T10:39:50;3.83;;;2.65;;
56239;SDS011;42154;51.992;5.896;2023-06-22T10:42:16;4.50;;;2.92;;
56239;SDS011;42154;51.992;5.896;2023-06-22T10:44:42;2.38;;;2.17;;
56239;SDS011;42154;51.992;5.896;2023-06-22T10:47:09;3.90;;;2.70;;
56239;SDS011;42154;51.992;5.896;2023-06-22T10:49:38;4.32;;;3.40;;
56239;SDS011;42154;51.992;5.896;2023-06-22T10:52:07;3.15;;;2.85;;
56239;SDS011;42154;51.992;5.896;2023-06-22T10:54:34;3.17;;;2.87;;
56239;SDS011;42154;51.992;5.896;2023-06-22T10:57:02;3.47;;;3.00;;
56239;SDS011;42154;51.992;5.896;2023-06-22T10:59:28;3.13;;;2.50;;
56239;SDS011;42154;51.992;5.896;2023-06-22T11:01:58;3.30;;;3.00;;
56239;SDS011;42154;51.992;5.896;2023-06-22T11:04:24;2.77;;;2.47;;
56239;SDS011;42154;51.992;5.896;2023-06-22T11:06:50;3.85;;;2.88;;
56239;SDS011;42154;51.992;5.896;2023-06-22T11:09:16;4.82;;;3.85;;
56239;SDS011;42154;51.992;5.896;2023-06-22T11:11:45;3.30;;;2.95;;
56239;SDS011;42154;51.992;5.896;2023-06-22T11:14:15;4.40;;;3.38;;
56239;SDS011;42154;51.992;5.896;2023-06-22T11:16:41;4.13;;;2.97;;
56239;SDS011;42154;51.992;5.896;2023-06-22T11:19:07;3.55;;;3.20;;
56239;SDS011;42154;51.992;5.896;2023-06-22T11:21:32;3.25;;;2.95;;
56239;SDS011;42154;51.992;5.896;2023-06-22T11:23:58;4.60;;;3.47;;
56239;SDS011;42154;51.992;5.896;2023-06-22T11:26:25;5.05;;;4.00;;
56239;SDS011;42154;51.992;5.896;2023-06-22T11:28:54;3.57;;;3.27;;
56239;SDS011;42154;51.992;5.896;2023-06-22T11:31:20;3.55;;;3.22;;
56239;SDS011;42154;51.992;5.896;2023-06-22T11:33:45;4.65;;;3.83;;
56239;SDS011;42154;51.992;5.896;2023-06-22T11:36:13;6.20;;;2.67;;
56239;SDS011;42154;51.992;5.896;2023-06-22T11:38:39;3.67;;;3.05;;
56239;SDS011;42154;51.992;5.896;2023-06-22T11:41:05;3.65;;;3.13;;
56239;SDS011;42154;51.992;5.896;2023-06-22T11:43:32;6.47;;;4.18;;
56239;SDS011;42154;51.992;5.896;2023-06-22T11:45:57;3.75;;;3.10;;
56239;SDS011;42154;51.992;5.896;2023-06-22T11:48:24;4.47;;;3.95;;
56239;SDS011;42154;51.992;5.896;2023-06-22T11:50:50;4.28;;;3.80;;
56239;SDS011;42154;51.992;5.896;2023-06-22T11:53:15;4.70;;;3.38;;
56239;SDS011;42154;51.992;5.896;2023-06-22T11:55:43;4.40;;;4.00;;
56239;SDS011;42154;51.992;5.896;2023-06-22T11:58:11;5.28;;;3.65;;
56239;SDS011;42154;51.992;5.896;2023-06-22T12:00:37;4.40;;;4.00;;
56239;SDS011;42154;51.992;5.896;2023-06-22T12:03:03;4.25;;;3.85;;
56239;SDS011;42154;51.992;5.896;2023-06-22T12:05:29;4.70;;;4.28;;
56239;SDS011;42154;51.992;5.896;2023-06-22T12:07:55;5.68;;;4.95;;
56239;SDS011;42154;51.992;5.896;2023-06-22T12:10:22;4.32;;;3.92;;
56239;SDS011;42154;51.992;5.896;2023-06-22T12:12:48;4.85;;;3.85;;
56239;SDS011;42154;51.992;5.896;2023-06-22T12:15:14;6.85;;;5.43;;
56239;SDS011;42154;51.992;5.896;2023-06-22T12:17:40;5.78;;;4.70;;
56239;SDS011;42154;51.992;5.896;2023-06-22T12:20:06;5.82;;;5.10;;
56239;SDS011;42154;51.992;5.896;2023-06-22T12:22:33;5.35;;;4.20;;
56239;SDS011;42154;51.992;5.896;2023-06-22T12:24:59;5.30;;;4.20;;
56239;SDS011;42154;51.992;5.896;2023-06-22T12:27:25;6.93;;;4.95;;
56239;SDS011;42154;51.992;5.896;2023-06-22T12:29:51;6.47;;;5.75;;
56239;SDS011;42154;51.992;5.896;2023-06-22T12:32:17;6.60;;;5.10;;
56239;SDS011;42154;51.992;5.896;2023-06-22T12:34:43;6.47;;;5.72;;
56239;SDS011;42154;51.992;5.896;2023-06-22T12:37:09;4.65;;;4.13;;
56239;SDS011;42154;51.992;5.896;2023-06-22T12:39:35;6.90;;;5.65;;
56239;SDS011;42154;51.992;5.896;2023-06-22T12:42:00;7.53;;;6.50;;
56239;SDS011;42154;51.992;5.896;2023-06-22T12:44:26;6.72;;;5.93;;
56239;SDS011;42154;51.992;5.896;2023-06-22T12:46:52;9.50;;;7.47;;
56239;SDS011;42154;51.992;5.896;2023-06-22T12:49:18;11.00;;;7.90;;
56239;SDS011;42154;51.992;5.896;2023-06-22T12:51:44;8.55;;;7.57;;
56239;SDS011;42154;51.992;5.896;2023-06-22T12:54:10;7.88;;;7.07;;
56239;SDS011;42154;51.992;5.896;2023-06-22T12:56:37;9.57;;;8.35;;
56239;SDS011;42154;51.992;5.896;2023-06-22T12:59:03;7.35;;;6.65;;
56239;SDS011;42154;51.992;5.896;2023-06-22T13:01:30;8.13;;;7.32;;
56239;SDS011;42154;51.992;5.896;2023-06-22T13:03:57;10.00;;;8.38;;
56239;SDS011;42154;51.992;5.896;2023-06-22T13:06:24;8.57;;;7.75;;
56239;SDS011;42154;51.992;5.896;2023-06-22T13:08:50;10.00;;;9.00;;
56239;SDS011;42154;51.992;5.896;2023-06-22T13:11:15;8.07;;;7.18;;
56239;SDS011;42154;51.992;5.896;2023-06-22T13:13:41;10.57;;;8.35;;
56239;SDS011;42154;51.992;5.896;2023-06-22T13:16:08;8.32;;;7.53;;
56239;SDS011;42154;51.992;5.896;2023-06-22T13:18:34;9.38;;;7.50;;
56239;SDS011;42154;51.992;5.896;2023-06-22T13:21:01;8.43;;;7.57;;
56239;SDS011;42154;51.992;5.896;2023-06-22T13:23:27;7.30;;;6.60;;
56239;SDS011;42154;51.992;5.896;2023-06-22T13:25:53;8.63;;;7.40;;
56239;SDS011;42154;51.992;5.896;2023-06-22T13:28:19;10.95;;;9.95;;
56239;SDS011;42154;51.992;5.896;2023-06-22T13:30:45;13.35;;;9.88;;
56239;SDS011;42154;51.992;5.896;2023-06-22T13:33:13;10.55;;;9.48;;
56239;SDS011;42154;51.992;5.896;2023-06-22T13:35:39;6.80;;;6.13;;
56239;SDS011;42154;51.992;5.896;2023-06-22T13:38:07;8.13;;;7.38;;
56239;SDS011;42154;51.992;5.896;2023-06-22T13:40:34;10.50;;;9.50;;
56239;SDS011;42154;51.992;5.896;2023-06-22T13:43:00;9.82;;;8.82;;
56239;SDS011;42154;51.992;5.896;2023-06-22T13:45:26;11.27;;;10.15;;
56239;SDS011;42154;51.992;5.896;2023-06-22T13:47:52;8.73;;;7.82;;
56239;SDS011;42154;51.992;5.896;2023-06-22T13:50:18;9.32;;;8.38;;
56239;SDS011;42154;51.992;5.896;2023-06-22T13:52:43;11.05;;;9.85;;
56239;SDS011;42154;51.992;5.896;2023-06-22T13:55:09;10.48;;;9.48;;
56239;SDS011;42154;51.992;5.896;2023-06-22T13:57:36;10.65;;;9.63;;
56239;SDS011;42154;51.992;5.896;2023-06-22T14:00:03;13.82;;;11.07;;
56239;SDS011;42154;51.992;5.896;2023-06-22T14:02:39;14.35;;;12.85;;
56239;SDS011;42154;51.992;5.896;2023-06-22T14:05:05;9.90;;;8.32;;
56239;SDS011;42154;51.992;5.896;2023-06-22T14:07:31;10.77;;;9.68;;
56239;SDS011;42154;51.992;5.896;2023-06-22T14:09:57;10.02;;;9.02;;
56239;SDS011;42154;51.992;5.896;2023-06-22T14:12:24;11.95;;;9.60;;
56239;SDS011;42154;51.992;5.896;2023-06-22T14:14:50;12.05;;;9.40;;
56239;SDS011;42154;51.992;5.896;2023-06-22T14:17:16;10.98;;;9.88;;
56239;SDS011;42154;51.992;5.896;2023-06-22T14:19:42;10.77;;;9.27;;
56239;SDS011;42154;51.992;5.896;2023-06-22T14:22:07;9.73;;;8.73;;
56239;SDS011;42154;51.992;5.896;2023-06-22T14:24:33;9.77;;;8.77;;
56239;SDS011;42154;51.992;5.896;2023-06-22T14:26:59;10.48;;;9.45;;
56239;SDS011;42154;51.992;5.896;2023-06-22T14:29:27;11.90;;;10.65;;
56239;SDS011;42154;51.992;5.896;2023-06-22T14:31:53;12.65;;;11.35;;
56239;SDS011;42154;51.992;5.896;2023-06-22T14:34:19;15.18;;;13.20;;
56239;SDS011;42154;51.992;5.896;2023-06-22T14:36:45;12.90;;;11.00;;
56239;SDS011;42154;51.992;5.896;2023-06-22T14:39:10;14.07;;;11.65;;
56239;SDS011;42154;51.992;5.896;2023-06-22T14:41:36;11.07;;;9.98;;
56239;SDS011;42154;51.992;5.896;2023-06-22T14:44:02;11.80;;;9.93;;
56239;SDS011;42154;51.992;5.896;2023-06-22T14:46:27;10.38;;;9.32;;
56239;SDS011;42154;51.992;5.896;2023-06-22T14:48:53;14.07;;;12.38;;
56239;SDS011;42154;51.992;5.896;2023-06-22T14:51:19;13.65;;;12.27;;
56239;SDS011;42154;51.992;5.896;2023-06-22T14:53:45;14.82;;;11.18;;
56239;SDS011;42154;51.992;5.896;2023-06-22T14:56:11;14.55;;;12.38;;